sensor_id;sensor_type;location;lat;lon;timestamp;P1;durP1;ratioP1;P2;durP2;ratioP2
33268;SDS011;19640;50.944;5.260;2023-05-07T00:00:02;4.18;;;3.58;;
33268;SDS011;19640;50.944;5.260;2023-05-07T00:02:32;4.85;;;3.30;;
33268;SDS011;19640;50.944;5.260;2023-05-07T00:04:57;8.25;;;3.50;;
33268;SDS011;19640;50.944;5.260;2023-05-07T00:07:23;3.60;;;2.72;;
33268;SDS011;19640;50.944;5.260;2023-05-07T00:09:49;2.63;;;2.30;;
33268;SDS011;19640;50.944;5.260;2023-05-07T00:12:15;2.92;;;2.47;;
33268;SDS011;19640;50.944;5.260;2023-05-07T00:14:41;4.75;;;3.90;;
33268;SDS011;19640;50.944;5.260;2023-05-07T00:17:06;2.53;;;2.33;;
33268;SDS011;19640;50.944;5.260;2023-05-07T00:19:32;4.10;;;3.10;;
33268;SDS011;19640;50.944;5.260;2023-05-07T00:21:58;5.82;;;2.55;;
33268;SDS011;19640;50.944;5.260;2023-05-07T00:24:24;4.20;;;3.65;;
33268;SDS011;19640;50.944;5.260;2023-05-07T00:26:49;4.20;;;3.90;;
33268;SDS011;19640;50.944;5.260;2023-05-07T00:29:15;4.40;;;3.75;;
33268;SDS011;19640;50.944;5.260;2023-05-07T00:31:41;5.35;;;4.85;;
33268;SDS011;19640;50.944;5.260;2023-05-07T00:34:07;3.90;;;3.60;;
33268;SDS011;19640;50.944;5.260;2023-05-07T00:36:32;4.70;;;4.30;;
33268;SDS011;19640;50.944;5.260;2023-05-07T00:39:01;6.05;;;4.95;;
33268;SDS011;19640;50.944;5.260;2023-05-07T00:41:28;5.47;;;4.82;;
33268;SDS011;19640;50.944;5.260;2023-05-07T00:43:55;5.82;;;5.32;;
33268;SDS011;19640;50.944;5.260;2023-05-07T00:46:21;4.18;;;3.83;;
33268;SDS011;19640;50.944;5.260;2023-05-07T00:48:48;4.50;;;4.10;;
33268;SDS011;19640;50.944;5.260;2023-05-07T00:51:16;5.18;;;4.68;;
33268;SDS011;19640;50.944;5.260;2023-05-07T00:53:43;6.05;;;4.90;;
33268;SDS011;19640;50.944;5.260;2023-05-07T00:56:09;5.28;;;4.78;;
33268;SDS011;19640;50.944;5.260;2023-05-07T00:58:36;6.10;;;5.53;;
33268;SDS011;19640;50.944;5.260;2023-05-07T01:01:02;7.85;;;5.50;;
33268;SDS011;19640;50.944;5.260;2023-05-07T01:03:28;8.55;;;5.28;;
33268;SDS011;19640;50.944;5.260;2023-05-07T01:05:54;7.15;;;6.45;;
33268;SDS011;19640;50.944;5.260;2023-05-07T01:08:22;7.05;;;5.60;;
33268;SDS011;19640;50.944;5.260;2023-05-07T01:10:49;6.15;;;4.97;;
33268;SDS011;19640;50.944;5.260;2023-05-07T01:13:17;6.05;;;5.45;;
33268;SDS011;19640;50.944;5.260;2023-05-07T01:15:44;7.05;;;5.70;;
33268;SDS011;19640;50.944;5.260;2023-05-07T01:18:10;6.22;;;5.63;;
33268;SDS011;19640;50.944;5.260;2023-05-07T01:20:36;6.20;;;5.60;;
33268;SDS011;19640;50.944;5.260;2023-05-07T01:23:02;6.20;;;5.60;;
33268;SDS011;19640;50.944;5.260;2023-05-07T01:25:29;6.90;;;5.70;;
33268;SDS011;19640;50.944;5.260;2023-05-07T01:27:55;8.50;;;6.10;;
33268;SDS011;19640;50.944;5.260;2023-05-07T01:30:21;5.88;;;5.30;;
33268;SDS011;19640;50.944;5.260;2023-05-07T01:32:51;6.47;;;5.35;;
33268;SDS011;19640;50.944;5.260;2023-05-07T01:35:23;8.15;;;5.78;;
33268;SDS011;19640;50.944;5.260;2023-05-07T01:37:52;6.85;;;5.90;;
33268;SDS011;19640;50.944;5.260;2023-05-07T01:40:19;6.07;;;5.32;;
33268;SDS011;19640;50.944;5.260;2023-05-07T01:42:46;6.68;;;5.57;;
33268;SDS011;19640;50.944;5.260;2023-05-07T01:45:13;5.80;;;5.28;;
33268;SDS011;19640;50.944;5.260;2023-05-07T01:47:39;7.30;;;5.82;;
33268;SDS011;19640;50.944;5.260;2023-05-07T01:50:05;7.05;;;5.90;;
33268;SDS011;19640;50.944;5.260;2023-05-07T01:52:33;6.55;;;5.95;;
33268;SDS011;19640;50.944;5.260;2023-05-07T01:54:59;10.30;;;6.13;;
33268;SDS011;19640;50.944;5.260;2023-05-07T01:57:25;7.07;;;5.57;;
33268;SDS011;19640;50.944;5.260;2023-05-07T01:59:51;7.85;;;5.40;;
33268;SDS011;19640;50.944;5.260;2023-05-07T02:02:17;6.72;;;4.90;;
33268;SDS011;19640;50.944;5.260;2023-05-07T02:04:42;6.68;;;5.32;;
33268;SDS011;19640;50.944;5.260;2023-05-07T02:07:08;6.60;;;5.32;;
33268;SDS011;19640;50.944;5.260;2023-05-07T02:09:34;5.00;;;4.60;;
33268;SDS011;19640;50.944;5.260;2023-05-07T02:11:59;6.93;;;5.10;;
33268;SDS011;19640;50.944;5.260;2023-05-07T02:14:26;5.55;;;5.05;;
33268;SDS011;19640;50.944;5.260;2023-05-07T02:16:52;6.10;;;5.60;;
33268;SDS011;19640;50.944;5.260;2023-05-07T02:19:17;5.75;;;5.28;;
33268;SDS011;19640;50.944;5.260;2023-05-07T02:21:46;5.70;;;5.20;;
33268;SDS011;19640;50.944;5.260;2023-05-07T02:24:12;5.90;;;5.30;;
33268;SDS011;19640;50.944;5.260;2023-05-07T02:26:39;6.70;;;6.05;;
33268;SDS011;19640;50.944;5.260;2023-05-07T02:29:05;5.78;;;5.28;;
33268;SDS011;19640;50.944;5.260;2023-05-07T02:31:30;5.75;;;5.15;;
33268;SDS011;19640;50.944;5.260;2023-05-07T02:33:58;6.13;;;5.50;;
33268;SDS011;19640;50.944;5.260;2023-05-07T02:36:25;17.27;;;6.13;;
33268;SDS011;19640;50.944;5.260;2023-05-07T02:38:51;6.00;;;5.35;;
33268;SDS011;19640;50.944;5.260;2023-05-07T02:41:17;6.50;;;5.88;;
33268;SDS011;19640;50.944;5.260;2023-05-07T02:43:43;6.60;;;6.00;;
33268;SDS011;19640;50.944;5.260;2023-05-07T02:46:09;7.10;;;5.90;;
33268;SDS011;19640;50.944;5.260;2023-05-07T02:48:35;6.70;;;5.85;;
33268;SDS011;19640;50.944;5.260;2023-05-07T02:51:01;7.18;;;5.57;;
33268;SDS011;19640;50.944;5.260;2023-05-07T02:53:28;6.43;;;5.78;;
33268;SDS011;19640;50.944;5.260;2023-05-07T02:55:57;6.93;;;6.25;;
33268;SDS011;19640;50.944;5.260;2023-05-07T02:58:24;6.80;;;6.20;;
33268;SDS011;19640;50.944;5.260;2023-05-07T03:00:50;6.03;;;5.38;;
33268;SDS011;19640;50.944;5.260;2023-05-07T03:03:16;5.40;;;4.90;;
33268;SDS011;19640;50.944;5.260;2023-05-07T03:05:42;5.47;;;5.07;;
33268;SDS011;19640;50.944;5.260;2023-05-07T03:08:09;10.80;;;5.85;;
33268;SDS011;19640;50.944;5.260;2023-05-07T03:10:35;6.45;;;5.75;;
33268;SDS011;19640;50.944;5.260;2023-05-07T03:13:01;5.88;;;5.38;;
33268;SDS011;19640;50.944;5.260;2023-05-07T03:15:28;5.30;;;4.90;;
33268;SDS011;19640;50.944;5.260;2023-05-07T03:17:54;6.88;;;6.28;;
33268;SDS011;19640;50.944;5.260;2023-05-07T03:20:19;6.30;;;5.70;;
33268;SDS011;19640;50.944;5.260;2023-05-07T03:22:45;6.97;;;6.00;;
33268;SDS011;19640;50.944;5.260;2023-05-07T03:25:12;6.30;;;5.75;;
33268;SDS011;19640;50.944;5.260;2023-05-07T03:27:40;7.38;;;5.55;;
33268;SDS011;19640;50.944;5.260;2023-05-07T03:30:09;5.82;;;5.20;;
33268;SDS011;19640;50.944;5.260;2023-05-07T03:32:36;5.97;;;5.47;;
33268;SDS011;19640;50.944;5.260;2023-05-07T03:35:02;5.47;;;5.07;;
33268;SDS011;19640;50.944;5.260;2023-05-07T03:37:28;6.10;;;5.50;;
33268;SDS011;19640;50.944;5.260;2023-05-07T03:39:54;7.35;;;5.65;;
33268;SDS011;19640;50.944;5.260;2023-05-07T03:42:20;5.88;;;5.38;;
33268;SDS011;19640;50.944;5.260;2023-05-07T03:44:45;9.38;;;5.50;;
33268;SDS011;19640;50.944;5.260;2023-05-07T03:47:11;6.70;;;6.00;;
33268;SDS011;19640;50.944;5.260;2023-05-07T03:49:38;8.35;;;6.15;;
33268;SDS011;19640;50.944;5.260;2023-05-07T03:52:04;5.97;;;5.38;;
33268;SDS011;19640;50.944;5.260;2023-05-07T03:54:30;6.00;;;5.50;;
33268;SDS011;19640;50.944;5.260;2023-05-07T03:56:56;8.45;;;7.03;;
33268;SDS011;19640;50.944;5.260;2023-05-07T03:59:22;8.70;;;6.75;;
33268;SDS011;19640;50.944;5.260;2023-05-07T04:01:47;6.97;;;6.28;;
33268;SDS011;19640;50.944;5.260;2023-05-07T04:04:14;6.95;;;6.25;;
33268;SDS011;19640;50.944;5.260;2023-05-07T04:06:40;6.95;;;6.25;;
33268;SDS011;19640;50.944;5.260;2023-05-07T04:09:06;7.05;;;6.35;;
33268;SDS011;19640;50.944;5.260;2023-05-07T04:11:32;8.25;;;5.97;;
33268;SDS011;19640;50.944;5.260;2023-05-07T04:13:57;10.00;;;7.28;;
33268;SDS011;19640;50.944;5.260;2023-05-07T04:16:23;8.50;;;7.00;;
33268;SDS011;19640;50.944;5.260;2023-05-07T04:18:49;7.72;;;6.97;;
33268;SDS011;19640;50.944;5.260;2023-05-07T04:21:15;7.40;;;6.65;;
33268;SDS011;19640;50.944;5.260;2023-05-07T04:23:42;7.40;;;6.07;;
33268;SDS011;19640;50.944;5.260;2023-05-07T04:26:07;9.00;;;6.70;;
33268;SDS011;19640;50.944;5.260;2023-05-07T04:28:33;7.22;;;6.10;;
33268;SDS011;19640;50.944;5.260;2023-05-07T04:31:00;9.13;;;6.40;;
33268;SDS011;19640;50.944;5.260;2023-05-07T04:33:25;6.25;;;5.65;;
33268;SDS011;19640;50.944;5.260;2023-05-07T04:35:51;7.07;;;6.35;;
33268;SDS011;19640;50.944;5.260;2023-05-07T04:38:17;7.28;;;6.57;;
33268;SDS011;19640;50.944;5.260;2023-05-07T04:40:44;7.13;;;6.20;;
33268;SDS011;19640;50.944;5.260;2023-05-07T04:43:10;6.50;;;5.15;;
33268;SDS011;19640;50.944;5.260;2023-05-07T04:45:36;7.40;;;5.47;;
33268;SDS011;19640;50.944;5.260;2023-05-07T04:48:01;5.57;;;5.07;;
33268;SDS011;19640;50.944;5.260;2023-05-07T04:50:27;6.07;;;5.50;;
33268;SDS011;19640;50.944;5.260;2023-05-07T04:52:53;7.72;;;6.25;;
33268;SDS011;19640;50.944;5.260;2023-05-07T04:55:19;6.53;;;5.93;;
33268;SDS011;19640;50.944;5.260;2023-05-07T04:57:44;7.32;;;6.63;;
33268;SDS011;19640;50.944;5.260;2023-05-07T05:00:10;8.63;;;7.82;;
33268;SDS011;19640;50.944;5.260;2023-05-07T05:02:39;8.35;;;7.38;;
33268;SDS011;19640;50.944;5.260;2023-05-07T05:05:05;7.50;;;6.80;;
33268;SDS011;19640;50.944;5.260;2023-05-07T05:07:32;9.52;;;7.45;;
33268;SDS011;19640;50.944;5.260;2023-05-07T05:09:57;14.07;;;8.27;;
33268;SDS011;19640;50.944;5.260;2023-05-07T05:12:24;8.85;;;7.25;;
33268;SDS011;19640;50.944;5.260;2023-05-07T05:14:49;7.53;;;6.68;;
33268;SDS011;19640;50.944;5.260;2023-05-07T05:17:15;7.32;;;6.68;;
33268;SDS011;19640;50.944;5.260;2023-05-07T05:19:41;7.20;;;6.32;;
33268;SDS011;19640;50.944;5.260;2023-05-07T05:22:07;7.68;;;6.95;;
33268;SDS011;19640;50.944;5.260;2023-05-07T05:24:32;10.10;;;8.10;;
33268;SDS011;19640;50.944;5.260;2023-05-07T05:26:58;7.65;;;6.90;;
33268;SDS011;19640;50.944;5.260;2023-05-07T05:29:26;6.88;;;6.20;;
33268;SDS011;19640;50.944;5.260;2023-05-07T05:31:52;8.15;;;7.32;;
33268;SDS011;19640;50.944;5.260;2023-05-07T05:34:17;7.40;;;6.70;;
33268;SDS011;19640;50.944;5.260;2023-05-07T05:36:44;6.90;;;6.25;;
33268;SDS011;19640;50.944;5.260;2023-05-07T05:39:10;7.47;;;6.35;;
33268;SDS011;19640;50.944;5.260;2023-05-07T05:41:36;8.25;;;7.18;;
33268;SDS011;19640;50.944;5.260;2023-05-07T05:44:02;7.32;;;6.68;;
33268;SDS011;19640;50.944;5.260;2023-05-07T05:46:27;8.30;;;7.60;;
33268;SDS011;19640;50.944;5.260;2023-05-07T05:48:53;8.07;;;7.32;;
33268;SDS011;19640;50.944;5.260;2023-05-07T05:51:20;8.77;;;7.97;;
33268;SDS011;19640;50.944;5.260;2023-05-07T05:53:46;9.23;;;8.30;;
33268;SDS011;19640;50.944;5.260;2023-05-07T05:56:11;8.27;;;7.40;;
33268;SDS011;19640;50.944;5.260;2023-05-07T05:58:37;7.97;;;7.28;;
33268;SDS011;19640;50.944;5.260;2023-05-07T06:01:03;8.48;;;6.65;;
33268;SDS011;19640;50.944;5.260;2023-05-07T06:03:30;7.90;;;7.07;;
33268;SDS011;19640;50.944;5.260;2023-05-07T06:05:57;9.00;;;8.18;;
33268;SDS011;19640;50.944;5.260;2023-05-07T06:08:23;8.10;;;7.30;;
33268;SDS011;19640;50.944;5.260;2023-05-07T06:10:49;8.63;;;7.85;;
33268;SDS011;19640;50.944;5.260;2023-05-07T06:13:15;8.95;;;8.05;;
33268;SDS011;19640;50.944;5.260;2023-05-07T06:15:40;9.02;;;7.22;;
33268;SDS011;19640;50.944;5.260;2023-05-07T06:18:06;9.25;;;7.65;;
33268;SDS011;19640;50.944;5.260;2023-05-07T06:20:32;10.88;;;7.75;;
33268;SDS011;19640;50.944;5.260;2023-05-07T06:22:57;7.95;;;6.65;;
33268;SDS011;19640;50.944;5.260;2023-05-07T06:25:23;7.40;;;6.70;;
33268;SDS011;19640;50.944;5.260;2023-05-07T06:27:49;10.65;;;7.25;;
33268;SDS011;19640;50.944;5.260;2023-05-07T06:30:15;7.88;;;6.70;;
33268;SDS011;19640;50.944;5.260;2023-05-07T06:32:40;12.05;;;6.88;;
33268;SDS011;19640;50.944;5.260;2023-05-07T06:35:06;7.57;;;6.88;;
33268;SDS011;19640;50.944;5.260;2023-05-07T06:37:32;12.88;;;6.55;;
33268;SDS011;19640;50.944;5.260;2023-05-07T06:39:58;11.68;;;6.32;;
33268;SDS011;19640;50.944;5.260;2023-05-07T06:42:24;8.05;;;6.68;;
33268;SDS011;19640;50.944;5.260;2023-05-07T06:44:49;8.88;;;6.72;;
33268;SDS011;19640;50.944;5.260;2023-05-07T06:47:15;6.72;;;5.60;;
33268;SDS011;19640;50.944;5.260;2023-05-07T06:49:41;5.75;;;5.25;;
33268;SDS011;19640;50.944;5.260;2023-05-07T06:52:06;5.88;;;5.38;;
33268;SDS011;19640;50.944;5.260;2023-05-07T06:54:32;5.78;;;5.28;;
33268;SDS011;19640;50.944;5.260;2023-05-07T06:56:58;5.78;;;5.25;;
33268;SDS011;19640;50.944;5.260;2023-05-07T06:59:23;6.93;;;5.70;;
33268;SDS011;19640;50.944;5.260;2023-05-07T07:01:49;6.10;;;5.53;;
33268;SDS011;19640;50.944;5.260;2023-05-07T07:04:15;5.88;;;5.38;;
33268;SDS011;19640;50.944;5.260;2023-05-07T07:06:40;5.88;;;5.28;;
33268;SDS011;19640;50.944;5.260;2023-05-07T07:09:06;5.57;;;5.07;;
33268;SDS011;19640;50.944;5.260;2023-05-07T07:11:32;6.28;;;5.38;;
33268;SDS011;19640;50.944;5.260;2023-05-07T07:13:58;6.43;;;4.75;;
33268;SDS011;19640;50.944;5.260;2023-05-07T07:16:24;8.27;;;5.70;;
33268;SDS011;19640;50.944;5.260;2023-05-07T07:18:49;6.40;;;5.05;;
33268;SDS011;19640;50.944;5.260;2023-05-07T07:21:16;5.28;;;4.78;;
33268;SDS011;19640;50.944;5.260;2023-05-07T07:23:42;6.45;;;4.90;;
33268;SDS011;19640;50.944;5.260;2023-05-07T07:26:07;5.05;;;4.65;;
33268;SDS011;19640;50.944;5.260;2023-05-07T07:28:33;6.80;;;4.80;;
33268;SDS011;19640;50.944;5.260;2023-05-07T07:30:59;6.10;;;4.25;;
33268;SDS011;19640;50.944;5.260;2023-05-07T07:33:25;4.85;;;3.90;;
33268;SDS011;19640;50.944;5.260;2023-05-07T07:35:50;4.40;;;4.05;;
33268;SDS011;19640;50.944;5.260;2023-05-07T07:38:16;5.38;;;4.20;;
33268;SDS011;19640;50.944;5.260;2023-05-07T07:40:42;6.43;;;3.60;;
33268;SDS011;19640;50.944;5.260;2023-05-07T07:43:08;5.50;;;4.00;;
33268;SDS011;19640;50.944;5.260;2023-05-07T07:45:34;6.18;;;3.90;;
33268;SDS011;19640;50.944;5.260;2023-05-07T07:48:00;5.28;;;3.58;;
33268;SDS011;19640;50.944;5.260;2023-05-07T07:50:26;4.60;;;3.67;;
33268;SDS011;19640;50.944;5.260;2023-05-07T07:52:52;4.47;;;4.07;;
33268;SDS011;19640;50.944;5.260;2023-05-07T07:55:19;4.30;;;3.55;;
33268;SDS011;19640;50.944;5.260;2023-05-07T07:57:48;5.82;;;3.88;;
33268;SDS011;19640;50.944;5.260;2023-05-07T08:00:16;4.25;;;3.85;;
33268;SDS011;19640;50.944;5.260;2023-05-07T08:02:42;6.25;;;4.28;;
33268;SDS011;19640;50.944;5.260;2023-05-07T08:05:08;4.78;;;4.28;;
33268;SDS011;19640;50.944;5.260;2023-05-07T08:07:33;5.20;;;4.25;;
33268;SDS011;19640;50.944;5.260;2023-05-07T08:09:59;6.53;;;4.40;;
33268;SDS011;19640;50.944;5.260;2023-05-07T08:12:25;5.60;;;4.38;;
33268;SDS011;19640;50.944;5.260;2023-05-07T08:14:51;5.03;;;4.32;;
33268;SDS011;19640;50.944;5.260;2023-05-07T08:17:17;5.30;;;3.88;;
33268;SDS011;19640;50.944;5.260;2023-05-07T08:19:44;4.88;;;4.22;;
33268;SDS011;19640;50.944;5.260;2023-05-07T08:22:10;5.57;;;4.32;;
33268;SDS011;19640;50.944;5.260;2023-05-07T08:24:36;5.57;;;5.05;;
33268;SDS011;19640;50.944;5.260;2023-05-07T08:27:02;6.65;;;4.50;;
33268;SDS011;19640;50.944;5.260;2023-05-07T08:29:27;6.38;;;4.25;;
33268;SDS011;19640;50.944;5.260;2023-05-07T08:31:53;6.05;;;4.43;;
33268;SDS011;19640;50.944;5.260;2023-05-07T08:34:21;5.15;;;4.28;;
33268;SDS011;19640;50.944;5.260;2023-05-07T08:36:47;4.47;;;4.05;;
33268;SDS011;19640;50.944;5.260;2023-05-07T08:39:14;5.10;;;4.60;;
33268;SDS011;19640;50.944;5.260;2023-05-07T08:41:43;6.85;;;4.30;;
33268;SDS011;19640;50.944;5.260;2023-05-07T08:44:13;6.65;;;4.88;;
33268;SDS011;19640;50.944;5.260;2023-05-07T08:46:41;5.18;;;4.63;;
33268;SDS011;19640;50.944;5.260;2023-05-07T08:49:08;7.85;;;5.13;;
33268;SDS011;19640;50.944;5.260;2023-05-07T08:51:35;5.05;;;4.30;;
33268;SDS011;19640;50.944;5.260;2023-05-07T08:54:01;5.68;;;4.45;;
33268;SDS011;19640;50.944;5.260;2023-05-07T08:56:27;6.18;;;4.47;;
33268;SDS011;19640;50.944;5.260;2023-05-07T08:58:53;5.72;;;5.05;;
33268;SDS011;19640;50.944;5.260;2023-05-07T09:01:23;8.63;;;5.38;;
33268;SDS011;19640;50.944;5.260;2023-05-07T09:03:50;5.43;;;4.75;;
33268;SDS011;19640;50.944;5.260;2023-05-07T09:06:18;7.53;;;5.10;;
33268;SDS011;19640;50.944;5.260;2023-05-07T09:08:50;6.55;;;4.85;;
33268;SDS011;19640;50.944;5.260;2023-05-07T09:11:21;7.35;;;4.97;;
33268;SDS011;19640;50.944;5.260;2023-05-07T09:13:48;6.72;;;5.50;;
33268;SDS011;19640;50.944;5.260;2023-05-07T09:16:18;5.53;;;5.03;;
33268;SDS011;19640;50.944;5.260;2023-05-07T09:18:46;8.05;;;5.15;;
33268;SDS011;19640;50.944;5.260;2023-05-07T09:21:16;6.53;;;5.15;;
33268;SDS011;19640;50.944;5.260;2023-05-07T09:23:42;5.82;;;4.63;;
33268;SDS011;19640;50.944;5.260;2023-05-07T09:26:08;4.18;;;3.78;;
33268;SDS011;19640;50.944;5.260;2023-05-07T09:28:40;6.43;;;4.00;;
33268;SDS011;19640;50.944;5.260;2023-05-07T09:31:07;6.65;;;3.97;;
33268;SDS011;19640;50.944;5.260;2023-05-07T09:33:33;3.78;;;3.30;;
33268;SDS011;19640;50.944;5.260;2023-05-07T09:36:03;5.93;;;3.17;;
33268;SDS011;19640;50.944;5.260;2023-05-07T09:38:30;4.25;;;3.17;;
33268;SDS011;19640;50.944;5.260;2023-05-07T09:41:04;5.85;;;3.50;;
33268;SDS011;19640;50.944;5.260;2023-05-07T09:43:39;6.75;;;3.95;;
33268;SDS011;19640;50.944;5.260;2023-05-07T09:46:12;7.22;;;3.70;;
33268;SDS011;19640;50.944;5.260;2023-05-07T09:48:42;5.50;;;4.20;;
33268;SDS011;19640;50.944;5.260;2023-05-07T09:53:37;6.15;;;4.03;;
33268;SDS011;19640;50.944;5.260;2023-05-07T09:56:03;5.03;;;4.45;;
33268;SDS011;19640;50.944;5.260;2023-05-07T09:58:30;6.38;;;4.65;;
33268;SDS011;19640;50.944;5.260;2023-05-07T10:00:58;6.97;;;4.18;;
33268;SDS011;19640;50.944;5.260;2023-05-07T10:03:27;7.72;;;4.30;;
33268;SDS011;19640;50.944;5.260;2023-05-07T10:05:57;5.70;;;4.00;;
33268;SDS011;19640;50.944;5.260;2023-05-07T10:08:23;6.03;;;4.63;;
33268;SDS011;19640;50.944;5.260;2023-05-07T10:10:50;6.22;;;4.10;;
33268;SDS011;19640;50.944;5.260;2023-05-07T10:13:18;8.57;;;5.15;;
33268;SDS011;19640;50.944;5.260;2023-05-07T10:15:44;5.82;;;4.13;;
33268;SDS011;19640;50.944;5.260;2023-05-07T10:18:10;7.70;;;4.50;;
33268;SDS011;19640;50.944;5.260;2023-05-07T10:20:38;10.52;;;4.47;;
33268;SDS011;19640;50.944;5.260;2023-05-07T10:23:06;7.93;;;5.15;;
33268;SDS011;19640;50.944;5.260;2023-05-07T10:25:35;7.60;;;5.60;;
33268;SDS011;19640;50.944;5.260;2023-05-07T10:28:02;6.97;;;5.32;;
33268;SDS011;19640;50.944;5.260;2023-05-07T10:33:31;6.07;;;5.15;;
33268;SDS011;19640;50.944;5.260;2023-05-07T10:35:58;10.35;;;5.20;;
33268;SDS011;19640;50.944;5.260;2023-05-07T10:38:25;8.27;;;5.28;;
33268;SDS011;19640;50.944;5.260;2023-05-07T10:40:52;9.65;;;5.95;;
33268;SDS011;19640;50.944;5.260;2023-05-07T10:43:19;8.30;;;5.75;;
33268;SDS011;19640;50.944;5.260;2023-05-07T10:46:08;7.88;;;5.07;;
33268;SDS011;19640;50.944;5.260;2023-05-07T10:48:34;12.00;;;5.45;;
33268;SDS011;19640;50.944;5.260;2023-05-07T10:51:27;7.07;;;4.50;;
33268;SDS011;19640;50.944;5.260;2023-05-07T10:56:41;6.00;;;5.20;;
33268;SDS011;19640;50.944;5.260;2023-05-07T11:01:49;9.15;;;4.20;;
33268;SDS011;19640;50.944;5.260;2023-05-07T11:04:16;8.97;;;4.20;;
33268;SDS011;19640;50.944;5.260;2023-05-07T11:09:58;9.95;;;4.13;;
33268;SDS011;19640;50.944;5.260;2023-05-07T11:15:09;6.20;;;4.22;;
33268;SDS011;19640;50.944;5.260;2023-05-07T11:17:52;6.90;;;4.03;;
33268;SDS011;19640;50.944;5.260;2023-05-07T11:20:19;6.70;;;3.97;;
33268;SDS011;19640;50.944;5.260;2023-05-07T11:22:45;7.95;;;3.63;;
33268;SDS011;19640;50.944;5.260;2023-05-07T11:25:17;7.80;;;4.13;;
33268;SDS011;19640;50.944;5.260;2023-05-07T11:27:46;4.32;;;3.53;;
33268;SDS011;19640;50.944;5.260;2023-05-07T11:30:18;8.02;;;4.22;;
33268;SDS011;19640;50.944;5.260;2023-05-07T11:32:46;6.38;;;4.18;;
33268;SDS011;19640;50.944;5.260;2023-05-07T11:35:13;7.93;;;3.88;;
33268;SDS011;19640;50.944;5.260;2023-05-07T11:37:40;9.48;;;3.95;;
33268;SDS011;19640;50.944;5.260;2023-05-07T11:40:07;6.20;;;3.40;;
33268;SDS011;19640;50.944;5.260;2023-05-07T11:42:36;7.22;;;3.95;;
33268;SDS011;19640;50.944;5.260;2023-05-07T11:45:02;6.57;;;3.55;;
33268;SDS011;19640;50.944;5.260;2023-05-07T11:47:32;6.55;;;3.38;;
33268;SDS011;19640;50.944;5.260;2023-05-07T11:50:07;5.90;;;3.70;;
33268;SDS011;19640;50.944;5.260;2023-05-07T11:52:35;3.75;;;3.30;;
33268;SDS011;19640;50.944;5.260;2023-05-07T11:55:01;7.25;;;3.60;;
33268;SDS011;19640;50.944;5.260;2023-05-07T11:57:29;6.93;;;4.28;;
33268;SDS011;19640;50.944;5.260;2023-05-07T12:02:25;5.30;;;2.95;;
33268;SDS011;19640;50.944;5.260;2023-05-07T12:04:51;4.68;;;3.70;;
33268;SDS011;19640;50.944;5.260;2023-05-07T12:07:18;7.10;;;3.47;;
33268;SDS011;19640;50.944;5.260;2023-05-07T12:09:44;6.35;;;4.00;;
33268;SDS011;19640;50.944;5.260;2023-05-07T12:12:10;5.30;;;3.70;;
33268;SDS011;19640;50.944;5.260;2023-05-07T12:14:39;5.35;;;3.40;;
33268;SDS011;19640;50.944;5.260;2023-05-07T12:17:09;6.63;;;3.25;;
33268;SDS011;19640;50.944;5.260;2023-05-07T12:19:36;7.60;;;3.40;;
33268;SDS011;19640;50.944;5.260;2023-05-07T12:22:03;6.57;;;3.97;;
33268;SDS011;19640;50.944;5.260;2023-05-07T12:24:42;8.05;;;3.65;;
33268;SDS011;19640;50.944;5.260;2023-05-07T12:27:12;6.78;;;3.78;;
33268;SDS011;19640;50.944;5.260;2023-05-07T12:29:39;8.85;;;4.50;;
33268;SDS011;19640;50.944;5.260;2023-05-07T12:32:06;9.38;;;4.10;;
33268;SDS011;19640;50.944;5.260;2023-05-07T12:34:32;5.88;;;4.65;;
33268;SDS011;19640;50.944;5.260;2023-05-07T12:36:57;7.32;;;4.40;;
33268;SDS011;19640;50.944;5.260;2023-05-07T12:39:27;7.20;;;4.13;;
33268;SDS011;19640;50.944;5.260;2023-05-07T12:41:56;6.72;;;4.68;;
33268;SDS011;19640;50.944;5.260;2023-05-07T12:44:33;6.67;;;4.63;;
33268;SDS011;19640;50.944;5.260;2023-05-07T12:47:01;6.72;;;3.75;;
33268;SDS011;19640;50.944;5.260;2023-05-07T12:49:27;18.77;;;4.75;;
33268;SDS011;19640;50.944;5.260;2023-05-07T12:51:53;5.35;;;3.88;;
33268;SDS011;19640;50.944;5.260;2023-05-07T12:54:32;5.20;;;3.47;;
33268;SDS011;19640;50.944;5.260;2023-05-07T12:57:05;7.82;;;4.20;;
33268;SDS011;19640;50.944;5.260;2023-05-07T12:59:40;5.57;;;3.90;;
33268;SDS011;19640;50.944;5.260;2023-05-07T13:02:07;7.30;;;3.80;;
33268;SDS011;19640;50.944;5.260;2023-05-07T13:04:33;4.88;;;2.97;;
33268;SDS011;19640;50.944;5.260;2023-05-07T13:06:59;7.82;;;4.05;;
33268;SDS011;19640;50.944;5.260;2023-05-07T13:09:25;4.65;;;3.08;;
33268;SDS011;19640;50.944;5.260;2023-05-07T13:11:53;3.95;;;2.88;;
33268;SDS011;19640;50.944;5.260;2023-05-07T13:14:18;7.55;;;3.20;;
33268;SDS011;19640;50.944;5.260;2023-05-07T13:16:46;5.32;;;3.08;;
33268;SDS011;19640;50.944;5.260;2023-05-07T13:19:12;5.38;;;3.22;;
33268;SDS011;19640;50.944;5.260;2023-05-07T13:21:37;4.28;;;3.20;;
33268;SDS011;19640;50.944;5.260;2023-05-07T13:24:03;5.43;;;2.33;;
33268;SDS011;19640;50.944;5.260;2023-05-07T13:26:30;3.53;;;2.47;;
33268;SDS011;19640;50.944;5.260;2023-05-07T13:28:56;4.30;;;2.50;;
33268;SDS011;19640;50.944;5.260;2023-05-07T13:31:22;4.35;;;2.53;;
33268;SDS011;19640;50.944;5.260;2023-05-07T13:33:48;4.90;;;2.70;;
33268;SDS011;19640;50.944;5.260;2023-05-07T13:36:14;4.15;;;3.55;;
33268;SDS011;19640;50.944;5.260;2023-05-07T13:38:40;7.47;;;3.53;;
33268;SDS011;19640;50.944;5.260;2023-05-07T13:41:05;5.85;;;3.50;;
33268;SDS011;19640;50.944;5.260;2023-05-07T13:43:31;6.03;;;3.30;;
33268;SDS011;19640;50.944;5.260;2023-05-07T13:45:58;4.75;;;3.42;;
33268;SDS011;19640;50.944;5.260;2023-05-07T13:48:24;6.43;;;3.60;;
33268;SDS011;19640;50.944;5.260;2023-05-07T13:50:50;5.53;;;3.05;;
33268;SDS011;19640;50.944;5.260;2023-05-07T13:53:16;3.85;;;2.95;;
33268;SDS011;19640;50.944;5.260;2023-05-07T13:55:43;7.35;;;2.65;;
33268;SDS011;19640;50.944;5.260;2023-05-07T13:58:10;6.25;;;2.97;;
33268;SDS011;19640;50.944;5.260;2023-05-07T14:00:37;3.60;;;2.17;;
33268;SDS011;19640;50.944;5.260;2023-05-07T14:03:03;5.25;;;2.20;;
33268;SDS011;19640;50.944;5.260;2023-05-07T14:05:30;4.40;;;2.53;;
33268;SDS011;19640;50.944;5.260;2023-05-07T14:07:59;3.55;;;1.92;;
33268;SDS011;19640;50.944;5.260;2023-05-07T14:10:25;6.65;;;2.30;;
33268;SDS011;19640;50.944;5.260;2023-05-07T14:12:51;6.55;;;2.40;;
33268;SDS011;19640;50.944;5.260;2023-05-07T14:15:17;6.47;;;2.50;;
33268;SDS011;19640;50.944;5.260;2023-05-07T14:17:43;3.28;;;1.60;;
33268;SDS011;19640;50.944;5.260;2023-05-07T14:20:09;3.85;;;1.90;;
33268;SDS011;19640;50.944;5.260;2023-05-07T14:22:35;3.05;;;1.70;;
33268;SDS011;19640;50.944;5.260;2023-05-07T14:25:01;3.65;;;2.22;;
33268;SDS011;19640;50.944;5.260;2023-05-07T14:27:27;3.95;;;2.03;;
33268;SDS011;19640;50.944;5.260;2023-05-07T14:29:53;3.85;;;2.03;;
33268;SDS011;19640;50.944;5.260;2023-05-07T14:32:19;5.15;;;1.88;;
33268;SDS011;19640;50.944;5.260;2023-05-07T14:34:45;4.35;;;1.88;;
33268;SDS011;19640;50.944;5.260;2023-05-07T14:37:11;3.95;;;1.85;;
33268;SDS011;19640;50.944;5.260;2023-05-07T14:39:37;3.13;;;1.63;;
33268;SDS011;19640;50.944;5.260;2023-05-07T14:42:03;4.57;;;1.77;;
33268;SDS011;19640;50.944;5.260;2023-05-07T14:44:29;3.63;;;1.90;;
33268;SDS011;19640;50.944;5.260;2023-05-07T14:46:56;4.30;;;1.80;;
33268;SDS011;19640;50.944;5.260;2023-05-07T14:49:22;3.47;;;1.80;;
33268;SDS011;19640;50.944;5.260;2023-05-07T14:51:48;6.63;;;2.20;;
33268;SDS011;19640;50.944;5.260;2023-05-07T14:54:14;3.70;;;2.30;;
33268;SDS011;19640;50.944;5.260;2023-05-07T14:56:41;4.32;;;2.10;;
33268;SDS011;19640;50.944;5.260;2023-05-07T14:59:07;7.47;;;1.88;;
33268;SDS011;19640;50.944;5.260;2023-05-07T15:01:36;3.55;;;2.00;;
33268;SDS011;19640;50.944;5.260;2023-05-07T15:04:03;3.20;;;1.92;;